Accueil
METAR-TAF:

METAR-TAF

Aéroports :

Diepholz, Allemagne

latitude: 52-35N, longitude: 008-21E, altitude: 39 m

Observation

Le bulletin a été fait il y a 2 heures et 1 minutes, à 13:20 UTC
Vent 5 kt de est/sud-est
Température 13°C
Humidité 62%
Pression 1020 hPa
Visibilité 10 km ou plus
Nuages épars à une hauteur de 2900 ft
Nuages épars à une hauteur de 25000 ft

METAR: ETND 191320Z 11005KT 9999 SCT029 SCT250 13/06 Q1020 BLU+

Heure: 17:21 (15:21 UTC)


TAF: absent

Observations et prévisions météorologiques de plus de 4000 aéroports (messages METAR et TAF).

Les stations disponibles sont représentées par des disques jaunes et rouges sur la carte.

Passer la souris dessus pour voir le nom de la station.

Cliquer dessus pour voir les observations et prévisions météorologiques.

Pour changer de carte: cliquez sur les boutons verts avec une croix noire pour zoomer, sur le bouton vert avec un tiret pour effectuer un zoom arrière, ou sur les flèches vertes pour les cartes adjacentes.


METAR-TAF: